KNLC/NLC METAR and TAF weather

Enter ICAO airport designator
Station Type Date Time Source
KNLC METAR 2021/04/13 21:56 UTC NOAA

KNLC 132156Z 35017G25KT 10SM FEW250 27/03 A2975 RMK AO2 SLP074 RH/18 T02720028


Station Type Date Time Source
KNLC Decoded METAR 2021/04/13 21:56 UTC NOAA

LEMOORE NAVAL AIR STATION, CA, United States (KNLC) 36-20N 119-57W 72M
Apr 13, 2021 - 05:56 PM EDT / 2021.04.13 2156 UTC
Wind: from the N (350 degrees) at 20 MPH (17 KT) gusting to 29 MPH (25 KT):0
Visibility: 10 mile(s):0
Sky conditions: mostly clear
Temperature: 81.0 F (27.2 C)
Dew Point: 37.0 F (2.8 C)
Relative Humidity: 20%
Pressure (altimeter): 29.75 in. Hg (1007 hPa)
ob: KNLC 132156Z 35017G25KT 10SM FEW250 27/03 A2975 RMK AO2 SLP074 RH/18 T02720028
cycle: 22

Station Type Date Time Source
KNLC TAF 2021/04/13 15:54 UTC NOAA

TAF TAF KNLC 1315/1415 VRB06KT 9999 SKC QNH2980INS
BECMG 1317/1319 34012KT 9999 FEW250 520005 QNH2970INS
TEMPO 1321/1403 36015G25KT
BECMG 1406/1408 VRB06KT 9999 SKC 500000 QNH2978INS T28/1323Z T06/1414Z FS30122

Example: see airport list